Time;durP1;ratioP1;P1;durP2;ratioP2;P2;SDS_P1;SDS_P2;PMS_P1;PMS_P2;Temp;Humidity;BMP_temperature;BMP_pressure;BME280_temperature;BME280_humidity;BME280_pressure;Samples;Min_cycle;Max_cycle;Signal;HPM_P1;HPM_P2
2023/10/18 00:01:23;;;;;;;7.43;5.07;;;14.20;70.10;;;;;;6214105;23;20004;-76
2023/10/18 00:03:48;;;;;;;10.32;5.80;;;14.30;70.20;;;;;;6215589;23;20481;-76
2023/10/18 00:06:21;;;;;;;8.20;4.57;;;14.20;70.60;;;;;;6214822;23;20009;-76
2023/10/18 00:08:47;;;;;;;8.20;4.70;;;14.20;70.10;;;;;;6215148;23;20059;-76
2023/10/18 00:11:13;;;;;;;9.65;6.15;;;14.20;70.40;;;;;;6215241;23;20351;-76
2023/10/18 00:13:39;;;;;;;9.48;5.68;;;14.20;70.50;;;;;;6214610;23;20019;-76
2023/10/18 00:16:07;;;;;;;7.40;4.95;;;14.20;70.50;;;;;;6214091;23;20307;-79
2023/10/18 00:18:33;;;;;;;10.80;5.20;;;14.20;70.30;;;;;;6188185;23;20013;-80
2023/10/18 00:21:04;;;;;;;6.95;5.40;;;14.20;70.20;;;;;;6214766;23;20048;-80
2023/10/18 00:23:31;;;;;;;7.30;5.25;;;14.20;70.10;;;;;;6214299;23;20000;-76
2023/10/18 00:26:01;;;;;;;10.38;5.72;;;14.20;70.10;;;;;;6213950;23;20084;-75
2023/10/18 00:28:27;;;;;;;6.68;5.03;;;14.20;70.20;;;;;;6214596;23;20289;-75
2023/10/18 00:30:53;;;;;;;7.53;5.45;;;14.20;70.10;;;;;;6187868;23;20001;-76
2023/10/18 00:33:22;;;;;;;7.65;5.07;;;14.10;70.20;;;;;;6214907;23;20426;-79
2023/10/18 00:35:48;;;;;;;6.72;5.18;;;14.10;70.30;;;;;;6214928;23;20004;-79
2023/10/18 00:38:18;;;;;;;7.68;5.30;;;14.10;70.40;;;;;;6214011;23;20011;-79
2023/10/18 00:40:45;;;;;;;7.40;4.93;;;14.10;70.60;;;;;;6214694;23;20008;-79
2023/10/18 00:43:27;;;;;;;6.47;5.00;;;14.10;70.60;;;;;;6216743;23;20058;-79
2023/10/18 00:45:55;;;;;;;6.15;4.60;;;14.10;70.40;;;;;;6216082;23;20111;-79
2023/10/18 00:48:27;;;;;;;8.98;5.75;;;14.10;70.50;;;;;;6216304;23;20043;-79
2023/10/18 00:50:55;;;;;;;9.00;5.30;;;14.10;70.50;;;;;;6188409;23;20011;-79
2023/10/18 00:53:25;;;;;;;8.23;5.10;;;14.10;70.60;;;;;;6215933;23;19997;-79
2023/10/18 00:55:57;;;;;;;7.40;5.07;;;14.00;70.40;;;;;;6190099;23;20005;-81
2023/10/18 00:58:31;;;;;;;7.72;5.50;;;14.00;70.50;;;;;;6216617;23;20024;-82
2023/10/18 01:01:01;;;;;;;9.32;5.30;;;14.10;70.70;;;;;;6190806;23;20091;-81
2023/10/18 01:03:35;;;;;;;6.22;4.78;;;14.10;70.50;;;;;;6217284;23;20024;-81
2023/10/18 01:06:04;;;;;;;9.85;5.82;;;14.10;70.40;;;;;;6216678;23;20001;-80
2023/10/18 01:08:30;;;;;;;9.43;5.18;;;14.10;70.50;;;;;;6216176;23;20009;-80
2023/10/18 01:11:03;;;;;;;7.20;5.07;;;14.10;70.30;;;;;;6215294;23;20001;-80
2023/10/18 01:13:29;;;;;;;8.30;5.22;;;14.10;70.40;;;;;;6216279;23;20001;-80
2023/10/18 01:15:56;;;;;;;8.00;5.07;;;14.10;70.20;;;;;;6216121;23;20003;-79
2023/10/18 01:18:22;;;;;;;9.15;6.20;;;14.10;70.20;;;;;;6216919;23;20007;-80
2023/10/18 01:20:48;;;;;;;9.30;6.18;;;14.00;70.40;;;;;;6204495;23;20004;-81
2023/10/18 01:23:14;;;;;;;6.88;4.93;;;14.00;70.30;;;;;;6216028;23;20008;-80
2023/10/18 01:25:39;;;;;;;7.25;5.00;;;14.00;70.50;;;;;;6215835;23;20361;-80
2023/10/18 01:28:08;;;;;;;10.52;5.63;;;14.00;70.50;;;;;;6216315;23;20366;-80
2023/10/18 01:30:33;;;;;;;7.53;5.15;;;14.00;70.40;;;;;;6216411;23;20055;-80
2023/10/18 01:33:04;;;;;;;9.13;5.18;;;14.00;70.50;;;;;;6189378;23;20009;-79
2023/10/18 01:35:31;;;;;;;6.70;4.75;;;13.90;70.50;;;;;;6215781;23;20051;-79
2023/10/18 01:37:57;;;;;;;6.55;4.80;;;13.90;70.80;;;;;;6215810;23;20042;-79
2023/10/18 01:40:41;;;;;;;7.70;4.82;;;13.90;70.90;;;;;;6216266;23;20005;-78
2023/10/18 01:43:10;;;;;;;6.68;5.05;;;13.90;70.90;;;;;;6216797;23;20319;-79
2023/10/18 01:45:37;;;;;;;8.73;5.20;;;13.90;70.80;;;;;;6216025;23;20011;-81
2023/10/18 01:48:06;;;;;;;7.03;5.20;;;13.90;70.90;;;;;;6216317;23;20075;-80
2023/10/18 01:50:32;;;;;;;7.72;4.97;;;13.90;71.00;;;;;;6189266;23;20028;-80
2023/10/18 01:53:00;;;;;;;6.85;4.80;;;13.80;71.10;;;;;;6215676;23;20395;-81
2023/10/18 01:55:28;;;;;;;7.93;4.95;;;13.80;71.00;;;;;;6215936;23;20001;-81
2023/10/18 01:57:53;;;;;;;7.65;5.20;;;13.80;71.20;;;;;;6215897;23;20008;-80
2023/10/18 02:00:19;;;;;;;8.05;4.78;;;13.80;71.40;;;;;;6188696;23;20000;-80
2023/10/18 02:02:48;;;;;;;7.90;4.95;;;13.80;71.20;;;;;;6216496;23;20001;-80
2023/10/18 02:05:18;;;;;;;7.55;4.78;;;13.80;71.30;;;;;;6216197;23;20072;-79
2023/10/18 02:07:47;;;;;;;5.85;4.53;;;13.80;71.40;;;;;;6216827;23;20005;-80
2023/10/18 02:10:21;;;;;;;8.70;5.28;;;13.80;71.30;;;;;;6189471;23;20004;-79
2023/10/18 02:12:46;;;;;;;7.15;4.95;;;13.80;71.60;;;;;;6216447;23;20023;-79
2023/10/18 02:15:12;;;;;;;7.68;5.03;;;13.70;71.60;;;;;;6189054;23;20091;-79
2023/10/18 02:17:40;;;;;;;7.68;5.10;;;13.60;71.50;;;;;;6215952;23;20435;-79
2023/10/18 02:20:25;;;;;;;6.22;4.65;;;13.60;71.70;;;;;;6216517;23;20000;-79
2023/10/18 02:22:53;;;;;;;7.20;4.70;;;13.60;72.00;;;;;;6216678;23;20004;-79
2023/10/18 02:28:22;;;;;;;6.30;4.72;;;13.50;72.00;;;;;;6216959;23;20043;-80
2023/10/18 02:31:13;;;;;;;6.93;4.60;;;13.60;72.10;;;;;;6216273;23;20000;-80
2023/10/18 02:33:45;;;;;;;5.18;4.05;;;13.50;72.40;;;;;;6189763;23;20005;-81
2023/10/18 02:36:11;;;;;;;8.18;4.40;;;13.40;72.20;;;;;;6216794;23;20096;-80
2023/10/18 02:38:41;;;;;;;6.13;4.30;;;13.40;72.40;;;;;;6216459;23;20067;-79
2023/10/18 02:41:21;;;;;;;8.20;4.88;;;13.50;72.30;;;;;;6216074;23;20423;-81
2023/10/18 02:43:48;;;;;;;7.07;4.55;;;13.50;72.40;;;;;;6216932;23;20001;-81
2023/10/18 02:46:20;;;;;;;6.30;4.40;;;13.50;72.30;;;;;;6216930;23;20001;-80
2023/10/18 02:48:49;;;;;;;5.97;4.68;;;13.50;72.20;;;;;;6216013;23;20008;-80
2023/10/18 02:51:15;;;;;;;4.93;3.97;;;13.50;72.30;;;;;;6189444;23;20328;-79
2023/10/18 02:53:41;;;;;;;6.03;4.63;;;13.50;72.10;;;;;;6216264;23;20001;-80
2023/10/18 02:56:09;;;;;;;4.90;3.78;;;13.50;72.50;;;;;;6188668;23;20007;-80
2023/10/18 02:58:38;;;;;;;6.45;4.70;;;13.50;72.30;;;;;;6216189;23;20013;-81
2023/10/18 03:01:06;;;;;;;7.75;4.70;;;13.50;72.30;;;;;;6215468;23;20004;-82
2023/10/18 03:03:32;;;;;;;7.03;4.57;;;13.50;72.30;;;;;;6215865;23;20001;-81
2023/10/18 03:06:06;;;;;;;6.45;4.43;;;13.60;72.20;;;;;;6215872;23;20027;-81
2023/10/18 03:08:33;;;;;;;9.27;4.57;;;13.60;72.00;;;;;;6216263;23;20070;-81
2023/10/18 03:11:01;;;;;;;5.88;4.07;;;13.60;71.90;;;;;;6216302;23;19997;-81
2023/10/18 03:13:27;;;;;;;6.43;4.43;;;13.60;72.00;;;;;;6216414;23;19997;-80
2023/10/18 03:16:15;;;;;;;6.95;4.70;;;13.60;71.90;;;;;;6215259;23;20012;-79
2023/10/18 03:18:43;;;;;;;5.63;4.20;;;13.60;71.70;;;;;;6215194;23;20005;-78
2023/10/18 03:21:13;;;;;;;6.78;5.13;;;13.70;71.70;;;;;;6215834;23;20031;-78
2023/10/18 03:23:45;;;;;;;7.18;4.60;;;13.60;71.80;;;;;;6188490;23;20451;-80
2023/10/18 03:26:11;;;;;;;9.85;4.60;;;13.60;71.70;;;;;;6216094;23;20004;-80
2023/10/18 03:28:41;;;;;;;6.45;4.13;;;13.60;71.70;;;;;;6215922;23;20011;-80
2023/10/18 03:31:29;;;;;;;7.77;4.47;;;13.60;71.90;;;;;;6215290;23;19997;-80
2023/10/18 03:34:06;;;;;;;7.40;3.88;;;13.60;72.00;;;;;;6215859;23;20120;-80
2023/10/18 03:36:34;;;;;;;7.10;3.97;;;13.60;72.00;;;;;;6188599;23;20324;-80
2023/10/18 03:39:00;;;;;;;6.13;4.10;;;13.70;72.20;;;;;;6215421;23;20064;-80
2023/10/18 03:41:40;;;;;;;6.05;3.85;;;13.60;72.10;;;;;;6214570;23;20084;-81
2023/10/18 03:44:06;;;;;;;6.85;4.03;;;13.70;72.00;;;;;;6188442;23;20005;-80
2023/10/18 03:46:38;;;;;;;6.43;3.58;;;13.70;72.00;;;;;;6214145;23;20005;-80
2023/10/18 03:49:16;;;;;;;5.13;3.55;;;13.70;71.90;;;;;;6214715;23;20008;-80
2023/10/18 03:51:46;;;;;;;4.75;4.05;;;13.70;72.00;;;;;;6214562;23;20007;-80
2023/10/18 03:54:14;;;;;;;6.22;4.20;;;13.70;72.10;;;;;;6214677;23;20000;-80
2023/10/18 03:56:43;;;;;;;7.05;3.88;;;13.70;72.20;;;;;;6214855;23;20419;-80
2023/10/18 03:59:21;;;;;;;5.07;3.65;;;13.70;72.10;;;;;;6215176;23;20023;-80
2023/10/18 04:02:04;;;;;;;4.35;3.22;;;13.70;72.00;;;;;;6215020;23;20370;-80
2023/10/18 04:04:37;;;;;;;5.97;4.22;;;13.70;72.10;;;;;;6215326;23;20011;-80
2023/10/18 04:07:13;;;;;;;5.10;3.42;;;13.60;72.30;;;;;;6214262;23;20009;-80
2023/10/18 04:09:40;;;;;;;4.78;3.67;;;13.60;72.30;;;;;;6188198;23;20032;-81
2023/10/18 04:12:08;;;;;;;4.70;3.85;;;13.60;72.40;;;;;;6213880;23;20000;-80
2023/10/18 04:14:34;;;;;;;5.38;3.33;;;13.60;72.40;;;;;;6215002;23;20008;-80
2023/10/18 04:17:03;;;;;;;5.43;3.75;;;13.60;72.40;;;;;;6217275;23;20346;-81
2023/10/18 04:19:28;;;;;;;5.38;3.60;;;13.60;72.60;;;;;;6216532;23;20008;-82
2023/10/18 04:21:54;;;;;;;5.85;3.88;;;13.60;72.60;;;;;;6216304;23;20001;-81
2023/10/18 04:24:20;;;;;;;6.05;4.13;;;13.60;72.50;;;;;;6216991;23;20415;-80
2023/10/18 04:26:50;;;;;;;5.82;3.60;;;13.60;72.40;;;;;;6221469;23;20000;-81
2023/10/18 04:29:23;;;;;;;5.72;3.92;;;13.60;72.50;;;;;;6217363;23;20008;-76
2023/10/18 04:31:50;;;;;;;7.90;3.42;;;13.60;72.30;;;;;;6215291;23;20100;-79
2023/10/18 04:34:19;;;;;;;6.57;3.05;;;13.70;72.20;;;;;;6215135;23;20075;-76
2023/10/18 04:36:44;;;;;;;7.43;3.53;;;13.70;72.20;;;;;;6216171;23;20001;-76
2023/10/18 04:39:11;;;;;;;6.55;4.22;;;13.70;72.00;;;;;;6215935;23;20471;-76
2023/10/18 04:41:38;;;;;;;6.05;3.05;;;13.70;72.10;;;;;;6216721;23;20004;-82
2023/10/18 04:44:05;;;;;;;4.82;3.30;;;13.70;72.20;;;;;;6215253;23;20420;-76
2023/10/18 04:46:37;;;;;;;5.65;3.42;;;13.70;72.10;;;;;;6189373;23;20355;-76
2023/10/18 04:54:35;;;;;;;4.75;3.10;;;13.70;72.10;;;;;;6218200;23;20103;-76
2023/10/18 04:57:00;;;;;;;7.32;3.60;;;13.70;72.00;;;;;;6216333;23;20052;-78
2023/10/18 04:59:29;;;;;;;4.45;3.13;;;13.70;71.80;;;;;;6215940;23;20017;-78
2023/10/18 05:04:28;;;;;;;5.25;3.50;;;13.70;71.60;;;;;;6219005;23;20012;-76
2023/10/18 05:06:54;;;;;;;4.50;3.20;;;13.80;71.80;;;;;;6216917;23;20031;-76
2023/10/18 05:09:45;;;;;;;5.85;3.58;;;13.80;71.80;;;;;;6213726;23;20005;-75
2023/10/18 05:12:16;;;;;;;5.82;3.13;;;13.80;71.70;;;;;;6214273;23;20083;-82
2023/10/18 05:17:17;;;;;;;5.57;3.25;;;13.80;71.60;;;;;;6217536;23;20011;-80
2023/10/18 05:19:44;;;;;;;4.78;3.42;;;13.90;71.40;;;;;;6217443;23;20039;-82
2023/10/18 05:22:20;;;;;;;5.32;3.03;;;13.90;71.50;;;;;;6216599;23;20001;-82
2023/10/18 05:27:35;;;;;;;6.95;3.75;;;14.00;71.00;;;;;;6216524;23;20051;-84
2023/10/18 05:30:08;;;;;;;7.03;3.45;;;14.00;70.90;;;;;;6217033;23;20076;-82
2023/10/18 05:35:26;;;;;;;4.13;3.10;;;14.00;71.40;;;;;;6219126;23;20004;-86
2023/10/18 05:37:58;;;;;;;5.38;2.75;;;14.00;70.80;;;;;;6215951;23;20008;-82
2023/10/18 05:43:07;;;;;;;5.55;3.10;;;14.00;70.90;;;;;;6217392;23;20423;-81
2023/10/18 05:45:33;;;;;;;6.57;3.70;;;14.00;70.90;;;;;;6216105;23;20007;-83
2023/10/18 05:48:03;;;;;;;5.82;3.15;;;14.00;71.20;;;;;;6215600;23;20016;-82
2023/10/18 05:50:34;;;;;;;4.93;2.70;;;14.00;71.10;;;;;;6215787;23;20003;-82
2023/10/18 05:53:02;;;;;;;3.78;2.42;;;14.00;71.10;;;;;;6215570;23;20456;-81
2023/10/18 05:55:30;;;;;;;8.07;3.10;;;14.00;71.30;;;;;;6215784;23;20031;-81
2023/10/18 05:57:56;;;;;;;4.68;3.03;;;14.00;71.30;;;;;;6189512;23;20082;-81
2023/10/18 06:00:23;;;;;;;4.47;3.03;;;14.00;71.30;;;;;;6216492;23;20008;-81
2023/10/18 06:02:52;;;;;;;5.82;3.00;;;14.00;71.30;;;;;;6216204;23;20008;-83
2023/10/18 06:05:19;;;;;;;4.05;3.05;;;14.00;71.80;;;;;;6215951;23;20008;-88
2023/10/18 06:07:46;;;;;;;4.55;2.97;;;14.10;71.80;;;;;;6216543;23;20001;-82
2023/10/18 06:10:17;;;;;;;6.25;2.90;;;14.10;71.50;;;;;;6216601;23;20035;-81
2023/10/18 06:12:46;;;;;;;4.45;3.25;;;14.10;71.60;;;;;;6216351;23;20449;-80
2023/10/18 06:15:30;;;;;;;5.10;2.92;;;14.10;71.50;;;;;;6214959;23;20004;-81
2023/10/18 06:17:57;;;;;;;5.10;3.60;;;14.10;71.50;;;;;;6216504;23;20442;-81
2023/10/18 06:20:29;;;;;;;4.65;3.42;;;14.00;71.40;;;;;;6216234;23;20004;-81
2023/10/18 06:23:09;;;;;;;5.97;3.42;;;14.00;71.50;;;;;;6216486;23;20001;-80
2023/10/18 06:25:35;;;;;;;6.15;4.00;;;14.10;71.60;;;;;;6216457;23;20070;-81
2023/10/18 06:28:06;;;;;;;5.97;3.55;;;14.10;71.70;;;;;;6216491;23;20008;-81
2023/10/18 06:30:39;;;;;;;6.82;3.95;;;14.10;71.70;;;;;;6216228;23;20023;-80
2023/10/18 06:33:07;;;;;;;7.30;3.83;;;14.10;71.60;;;;;;6216045;23;20370;-82
2023/10/18 06:35:50;;;;;;;6.40;4.10;;;14.10;71.80;;;;;;6215514;23;20001;-80
2023/10/18 06:38:17;;;;;;;5.32;3.63;;;14.10;71.60;;;;;;6215542;23;20008;-82
2023/10/18 06:40:50;;;;;;;6.57;4.35;;;14.20;71.60;;;;;;6187874;23;20498;-75
2023/10/18 06:43:16;;;;;;;5.68;4.13;;;14.20;71.90;;;;;;6189005;23;20005;-75
2023/10/18 06:45:42;;;;;;;6.45;4.50;;;14.20;71.80;;;;;;6215965;23;20009;-74
2023/10/18 06:48:08;;;;;;;7.60;4.60;;;14.20;71.80;;;;;;6215351;23;20040;-74
2023/10/18 06:50:35;;;;;;;7.35;4.82;;;14.20;71.60;;;;;;6215563;23;20084;-73
2023/10/18 06:53:05;;;;;;;6.47;4.03;;;14.20;71.60;;;;;;6216125;23;20051;-74
2023/10/18 06:55:35;;;;;;;;;;;14.30;71.80;;;;;;6216313;23;20004;-74
2023/10/18 06:58:12;;;;;;;7.22;4.32;;;14.30;71.70;;;;;;6188435;23;19907;-74
2023/10/18 07:00:43;;;;;;;6.53;3.78;;;14.30;71.70;;;;;;6215619;23;20004;-74
2023/10/18 07:03:16;;;;;;;5.15;3.92;;;14.30;71.90;;;;;;6216328;23;20331;-74
2023/10/18 07:05:46;;;;;;;5.07;3.13;;;14.20;72.00;;;;;;6216038;23;20115;-74
2023/10/18 07:08:19;;;;;;;6.80;3.75;;;14.20;72.00;;;;;;6213976;23;20626;-79
2023/10/18 07:10:56;;;;;;;4.93;3.13;;;14.10;72.40;;;;;;6214788;23;20001;-72
2023/10/18 07:13:34;;;;;;;6.15;3.88;;;14.10;72.50;;;;;;6215459;23;20353;-73
2023/10/18 07:16:01;;;;;;;4.15;3.05;;;14.00;72.40;;;;;;6189334;23;20009;-73
2023/10/18 07:18:27;;;;;;;6.10;3.03;;;14.00;72.60;;;;;;6212638;23;20005;-73
2023/10/18 07:20:59;;;;;;;3.90;2.78;;;14.00;72.80;;;;;;6214529;23;20319;-73
2023/10/18 07:23:26;;;;;;;4.93;2.97;;;14.00;72.70;;;;;;6215151;23;20522;-73
2023/10/18 07:25:52;;;;;;;4.10;2.42;;;14.00;72.80;;;;;;6214975;23;20004;-73
2023/10/18 07:28:21;;;;;;;3.40;2.53;;;14.00;72.80;;;;;;6214334;23;20011;-73
2023/10/18 07:30:48;;;;;;;5.70;3.20;;;14.00;72.80;;;;;;6214874;23;20000;-73
2023/10/18 07:33:15;;;;;;;4.07;2.55;;;14.00;72.90;;;;;;6215536;23;20001;-73
2023/10/18 07:35:46;;;;;;;5.78;2.83;;;14.00;73.00;;;;;;6216131;23;20000;-73
2023/10/18 07:38:13;;;;;;;3.47;2.78;;;14.10;72.90;;;;;;6216071;23;20000;-73
2023/10/18 07:40:42;;;;;;;4.35;2.88;;;14.20;72.90;;;;;;6215490;23;20106;-73
2023/10/18 07:43:12;;;;;;;3.67;2.47;;;14.20;73.00;;;;;;6215206;23;20047;-73
2023/10/18 07:45:45;;;;;;;4.60;2.70;;;14.30;72.80;;;;;;6215457;23;20000;-73
2023/10/18 07:48:11;;;;;;;4.25;2.70;;;14.40;72.50;;;;;;6215047;23;20004;-73
2023/10/18 07:53:05;;;;;;;6.35;2.72;;;14.40;72.30;;;;;;6217697;23;20330;-73
2023/10/18 07:55:37;;;;;;;3.28;2.38;;;14.50;72.10;;;;;;6215112;23;20043;-73
2023/10/18 07:58:17;;;;;;;4.20;2.60;;;14.40;72.00;;;;;;6215103;23;20076;-73
2023/10/18 08:01:46;;;;;;;7.15;3.08;;;14.40;72.10;;;;;;6215083;23;20434;-73
2023/10/18 08:03:31;;;;;;;4.35;2.90;;;14.50;72.20;;;;;;6188610;23;20028;-73
2023/10/18 08:05:57;;;;;;;3.55;2.47;;;14.50;72.20;;;;;;6215768;23;20005;-73
2023/10/18 08:08:27;;;;;;;4.45;3.20;;;14.50;72.20;;;;;;6215370;23;20005;-73
2023/10/18 08:10:55;;;;;;;4.85;2.38;;;14.60;72.10;;;;;;6215972;23;20434;-73
2023/10/18 08:13:27;;;;;;;5.90;3.03;;;14.60;72.00;;;;;;6215715;23;20076;-73
2023/10/18 08:15:58;;;;;;;4.55;2.50;;;14.60;71.80;;;;;;6189258;23;20327;-73
2023/10/18 08:18:42;;;;;;;7.28;2.58;;;14.60;72.00;;;;;;6215420;23;20308;-73
2023/10/18 08:21:26;;;;;;;5.28;3.10;;;14.60;71.80;;;;;;6215715;23;20008;-73
2023/10/18 08:23:55;;;;;;;3.97;2.88;;;14.60;72.10;;;;;;6215457;23;20055;-73
2023/10/18 08:26:22;;;;;;;5.47;3.17;;;14.60;71.90;;;;;;6215626;23;20008;-73
2023/10/18 08:28:48;;;;;;;5.20;2.85;;;14.60;71.80;;;;;;6215596;23;20126;-73
2023/10/18 08:33:54;;;;;;;5.10;3.05;;;14.50;71.90;;;;;;6216453;23;20083;-73
2023/10/18 08:36:29;;;;;;;5.72;3.08;;;14.50;72.10;;;;;;6188990;23;20407;-73
2023/10/18 08:38:56;;;;;;;4.95;2.80;;;14.40;72.10;;;;;;6215736;23;20058;-73
2023/10/18 08:41:33;;;;;;;4.38;2.97;;;14.50;72.30;;;;;;6215669;23;20001;-73
2023/10/18 08:44:06;;;;;;;3.83;2.90;;;14.60;72.20;;;;;;6215398;23;20012;-73
2023/10/18 08:46:36;;;;;;;4.28;3.10;;;14.60;72.30;;;;;;6215770;23;20011;-73
2023/10/18 08:49:03;;;;;;;4.93;2.92;;;14.60;72.10;;;;;;6214527;23;20482;-73
2023/10/18 08:51:29;;;;;;;4.18;2.83;;;14.60;72.10;;;;;;6213197;23;20050;-73
2023/10/18 08:53:59;;;;;;;4.95;3.10;;;14.60;72.10;;;;;;6214239;23;20067;-73
2023/10/18 08:56:29;;;;;;;7.85;3.17;;;14.60;72.00;;;;;;6214016;23;20003;-73
2023/10/18 08:58:58;;;;;;;3.35;2.47;;;14.60;72.00;;;;;;6213559;23;20435;-73
2023/10/18 09:01:25;;;;;;;5.03;2.88;;;14.60;72.00;;;;;;6215495;23;20004;-73
2023/10/18 09:03:51;;;;;;;5.22;2.92;;;14.60;72.20;;;;;;6216048;23;20000;-73
2023/10/18 09:06:30;;;;;;;4.05;2.97;;;14.70;72.20;;;;;;6216363;23;20360;-73
2023/10/18 09:09:10;;;;;;;6.40;2.97;;;14.70;71.90;;;;;;6217012;23;20006;-73
2023/10/18 09:11:47;;;;;;;5.20;2.85;;;14.70;72.10;;;;;;6217014;23;19996;-73
2023/10/18 09:14:15;;;;;;;6.88;3.50;;;14.60;72.20;;;;;;6216713;23;19996;-73
2023/10/18 09:16:43;;;;;;;4.78;3.28;;;14.70;72.30;;;;;;6217031;23;20027;-73
2023/10/18 09:19:10;;;;;;;5.35;3.53;;;14.70;72.20;;;;;;6217052;23;20067;-73
2023/10/18 09:21:42;;;;;;;5.75;3.38;;;14.70;72.30;;;;;;6216530;23;20001;-73
2023/10/18 09:24:09;;;;;;;5.40;4.15;;;14.70;72.20;;;;;;6188045;23;20091;-75
2023/10/18 09:26:41;;;;;;;7.28;4.43;;;14.70;72.30;;;;;;6214400;23;20004;-73
2023/10/18 09:29:09;;;;;;;4.47;3.25;;;14.60;72.30;;;;;;6213974;23;20001;-74
2023/10/18 09:31:36;;;;;;;4.65;3.38;;;14.60;72.60;;;;;;6216202;23;20366;-74
2023/10/18 09:34:08;;;;;;;8.18;4.28;;;14.60;72.70;;;;;;6215666;23;20000;-80
2023/10/18 09:36:38;;;;;;;4.05;2.85;;;14.60;72.80;;;;;;6215302;23;20004;-80
2023/10/18 09:39:11;;;;;;;8.27;3.47;;;14.50;72.80;;;;;;6215694;23;20008;-80
2023/10/18 09:41:39;;;;;;;3.90;3.13;;;14.60;72.90;;;;;;6216157;23;20001;-81
2023/10/18 09:44:06;;;;;;;5.97;3.50;;;14.60;72.80;;;;;;6216054;23;20015;-81
2023/10/18 09:46:34;;;;;;;4.97;3.38;;;14.70;72.70;;;;;;6215562;23;20012;-80
2023/10/18 09:49:02;;;;;;;5.57;3.38;;;14.70;72.70;;;;;;6215987;23;20000;-80
2023/10/18 09:51:29;;;;;;;3.47;2.92;;;14.80;72.90;;;;;;6215422;23;20438;-80
2023/10/18 09:53:55;;;;;;;5.93;2.97;;;14.80;72.90;;;;;;6215400;23;20064;-80
2023/10/18 09:56:24;;;;;;;5.75;3.33;;;14.90;72.80;;;;;;6215002;23;19997;-81
2023/10/18 09:58:51;;;;;;;6.40;2.95;;;14.90;72.70;;;;;;6216673;23;20039;-81
2023/10/18 10:01:28;;;;;;;4.07;3.08;;;15.00;72.70;;;;;;6190094;23;20339;-81
2023/10/18 10:03:58;;;;;;;5.05;3.15;;;15.10;72.50;;;;;;6216081;23;20004;-80
2023/10/18 10:06:26;;;;;;;6.50;3.00;;;15.10;72.30;;;;;;6215876;23;20031;-81
2023/10/18 10:09:12;;;;;;;4.13;2.95;;;15.20;72.00;;;;;;6216498;23;20005;-81
2023/10/18 10:11:43;;;;;;;4.20;3.10;;;15.20;71.80;;;;;;6189308;23;20130;-80
2023/10/18 10:14:17;;;;;;;5.50;3.22;;;15.30;71.90;;;;;;6188904;23;20008;-80
2023/10/18 10:16:52;;;;;;;8.07;3.08;;;15.30;71.90;;;;;;6216007;23;20079;-80
2023/10/18 10:19:23;;;;;;;4.50;3.45;;;15.30;71.80;;;;;;6216176;23;20004;-80
2023/10/18 10:21:49;;;;;;;7.90;3.03;;;15.40;71.70;;;;;;6215933;23;20427;-80
2023/10/18 10:24:30;;;;;;;4.00;3.10;;;15.40;71.80;;;;;;6215665;23;20043;-80
2023/10/18 10:27:21;;;;;;;5.22;2.92;;;15.50;71.50;;;;;;6216207;23;20419;-80
2023/10/18 10:29:56;;;;;;;7.25;3.55;;;15.50;71.30;;;;;;6216236;23;20008;-81
2023/10/18 10:32:23;;;;;;;5.43;2.88;;;15.50;71.10;;;;;;6216328;23;20001;-81
2023/10/18 10:35:08;;;;;;;4.85;3.05;;;15.50;71.30;;;;;;6216280;23;20001;-81
2023/10/18 10:37:35;;;;;;;10.93;3.03;;;15.50;71.00;;;;;;6216106;23;20372;-81
2023/10/18 10:40:19;;;;;;;5.35;2.60;;;15.60;71.30;;;;;;6215934;23;20009;-80
2023/10/18 10:42:49;;;;;;;4.13;2.75;;;15.60;72.10;;;;;;6216139;23;20000;-81
2023/10/18 10:45:35;;;;;;;3.75;2.83;;;15.60;71.30;;;;;;6216258;23;20005;-81
2023/10/18 10:51:13;;;;;;;5.00;3.15;;;15.80;71.30;;;;;;6216210;23;20347;-81
2023/10/18 10:53:46;;;;;;;4.63;3.25;;;15.90;71.40;;;;;;6216072;23;20001;-80
2023/10/18 10:56:17;;;;;;;5.57;3.08;;;15.90;70.90;;;;;;6215495;23;20076;-80
2023/10/18 11:01:43;;;;;;;5.00;2.90;;;16.00;70.60;;;;;;6217968;23;20015;-80
2023/10/18 11:04:14;;;;;;;4.68;3.35;;;16.10;70.60;;;;;;6216532;23;20028;-80
2023/10/18 11:06:44;;;;;;;5.47;3.58;;;16.10;70.60;;;;;;6216193;23;20004;-81
2023/10/18 11:09:17;;;;;;;5.65;3.00;;;16.10;70.40;;;;;;6216414;23;20027;-80
2023/10/18 11:11:45;;;;;;;4.10;3.30;;;16.10;70.40;;;;;;6216142;23;20035;-80
2023/10/18 11:14:22;;;;;;;4.68;2.97;;;16.10;70.60;;;;;;6188685;23;20012;-80
2023/10/18 11:16:53;;;;;;;5.20;3.13;;;16.10;70.40;;;;;;6215385;23;20004;-74
2023/10/18 11:19:28;;;;;;;4.32;3.55;;;16.10;70.30;;;;;;6214763;23;20080;-81
2023/10/18 11:21:54;;;;;;;4.72;3.17;;;16.10;70.30;;;;;;6215355;23;20009;-81
2023/10/18 11:24:21;;;;;;;4.57;3.35;;;16.10;70.40;;;;;;6214259;23;20293;-81
2023/10/18 11:26:50;;;;;;;6.32;3.70;;;16.10;70.30;;;;;;6215945;23;20319;-81
2023/10/18 11:29:24;;;;;;;9.40;3.38;;;16.10;70.30;;;;;;6214512;23;20354;-75
2023/10/18 11:31:56;;;;;;;5.10;3.10;;;16.10;70.30;;;;;;6189228;23;20288;-75
2023/10/18 11:34:25;;;;;;;8.52;4.00;;;16.10;70.10;;;;;;6214995;23;20007;-81
2023/10/18 11:36:54;;;;;;;4.35;3.03;;;16.10;70.10;;;;;;6215935;23;20001;-81
2023/10/18 11:39:23;;;;;;;3.63;2.80;;;16.00;70.30;;;;;;6214852;23;20289;-75
2023/10/18 11:41:52;;;;;;;4.22;3.08;;;16.00;70.30;;;;;;6188883;23;20012;-75
2023/10/18 11:44:33;;;;;;;4.65;3.28;;;16.10;70.50;;;;;;6210219;23;20344;-76
2023/10/18 11:47:30;;;;;;;7.03;3.20;;;16.10;70.10;;;;;;6212076;23;20012;-81
2023/10/18 11:49:57;;;;;;;6.50;3.28;;;16.10;70.20;;;;;;6214426;23;20000;-82
2023/10/18 11:52:25;;;;;;;6.47;3.17;;;16.10;71.00;;;;;;6214936;23;20005;-82
2023/10/18 11:54:52;;;;;;;4.30;3.17;;;16.10;70.40;;;;;;6213665;23;20000;-82
2023/10/18 11:57:34;;;;;;;11.77;3.35;;;16.10;70.60;;;;;;6215627;23;20047;-82
2023/10/18 12:02:45;;;;;;;4.88;2.90;;;16.10;70.30;;;;;;6215478;23;20033;-75
2023/10/18 12:05:14;;;;;;;5.93;3.28;;;16.10;70.30;;;;;;6213313;23;20039;-82
2023/10/18 12:07:46;;;;;;;6.07;3.30;;;16.10;70.30;;;;;;6215162;23;20005;-82
2023/10/18 12:10:17;;;;;;;7.57;3.70;;;16.20;70.40;;;;;;6212201;23;20411;-81
2023/10/18 12:12:44;;;;;;;8.05;3.42;;;16.20;70.40;;;;;;6214988;23;20079;-82
2023/10/18 12:15:10;;;;;;;3.72;2.97;;;16.20;70.40;;;;;;6214059;23;20005;-81
2023/10/18 12:17:35;;;;;;;11.50;4.10;;;16.30;70.30;;;;;;6215516;23;19997;-81
2023/10/18 12:20:08;;;;;;;5.93;3.47;;;16.30;70.20;;;;;;6188532;23;20565;-81
2023/10/18 12:22:36;;;;;;;8.20;4.20;;;16.30;70.10;;;;;;6190154;23;20013;-83
2023/10/18 12:27:34;;;;;;;4.95;3.28;;;16.30;70.10;;;;;;6228784;22;20035;-86
2023/10/18 12:30:10;;;;;;;7.78;3.22;;;16.30;70.20;;;;;;6245962;23;20038;-78
2023/10/18 12:32:42;;;;;;;4.93;3.55;;;16.30;70.20;;;;;;6244562;23;20046;-78
2023/10/18 12:35:15;;;;;;;5.38;3.42;;;16.30;70.40;;;;;;6244393;23;19996;-77
2023/10/18 12:37:41;;;;;;;7.82;3.63;;;16.30;70.30;;;;;;6247148;23;20365;-77
2023/10/18 12:40:27;;;;;;;5.75;3.33;;;16.30;70.20;;;;;;6246812;23;20061;-79
2023/10/18 12:43:17;;;;;;;4.65;3.53;;;16.30;70.10;;;;;;6220387;23;20303;-79
2023/10/18 12:45:45;;;;;;;4.43;3.20;;;16.30;70.50;;;;;;6246163;23;20004;-77
2023/10/18 12:48:14;;;;;;;4.75;3.35;;;16.30;70.60;;;;;;6220634;23;20273;-78
2023/10/18 12:50:45;;;;;;;4.68;3.28;;;16.30;70.30;;;;;;6246715;23;20046;-78
2023/10/18 12:56:17;;;;;;;4.32;3.17;;;16.30;70.40;;;;;;6247847;23;20019;-77
2023/10/18 12:58:56;;;;;;;5.53;3.45;;;16.20;70.30;;;;;;6247123;23;20008;-77
2023/10/18 13:01:22;;;;;;;5.03;3.47;;;16.30;70.70;;;;;;6246632;23;20004;-77
2023/10/18 13:03:57;;;;;;;6.60;3.78;;;16.30;70.50;;;;;;6246721;23;20227;-84
2023/10/18 13:06:35;;;;;;;8.13;4.10;;;16.30;70.40;;;;;;6221668;23;20036;-86
2023/10/18 13:12:00;;;;;;;4.78;3.15;;;16.30;70.40;;;;;;6248732;23;20008;-84
2023/10/18 13:14:30;;;;;;;8.07;3.92;;;16.30;71.00;;;;;;6249717;23;20000;-78
2023/10/18 13:16:56;;;;;;;7.60;3.60;;;16.30;70.60;;;;;;6219055;23;20000;-78
2023/10/18 13:19:27;;;;;;;5.68;3.58;;;16.20;70.60;;;;;;6245680;23;20004;-78
2023/10/18 13:21:53;;;;;;;4.30;3.28;;;16.20;70.60;;;;;;6244598;23;20004;-78
2023/10/18 13:26:52;;;;;;;7.53;3.95;;;16.10;70.80;;;;;;6246810;23;20020;-85
2023/10/18 13:31:45;;;;;;;4.55;3.47;;;16.00;71.20;;;;;;6250469;23;19903;-82
2023/10/18 13:34:20;;;;;;;9.85;4.70;;;16.00;71.10;;;;;;6247014;23;20000;-84
2023/10/18 13:36:50;;;;;;;4.60;3.60;;;16.00;71.20;;;;;;6247118;23;20015;-84
2023/10/18 13:39:17;;;;;;;5.60;4.05;;;16.00;71.10;;;;;;6220563;23;20356;-83
2023/10/18 13:41:46;;;;;;;4.63;3.85;;;15.90;71.00;;;;;;6246796;23;20004;-84
2023/10/18 13:44:13;;;;;;;5.30;3.50;;;15.90;70.90;;;;;;6246708;23;20004;-85
2023/10/18 13:46:39;;;;;;;5.57;3.45;;;15.90;71.00;;;;;;6246602;23;20010;-85
2023/10/18 13:49:08;;;;;;;7.47;4.18;;;15.90;71.10;;;;;;6246563;23;20079;-87
2023/10/18 13:51:37;;;;;;;6.07;3.10;;;15.90;71.10;;;;;;6221023;23;20420;-86
2023/10/18 13:54:07;;;;;;;4.72;3.28;;;15.90;71.10;;;;;;6248127;23;20088;-85